createdAt,value
2023-07-22T00:00:39.622Z,62.85
2023-07-22T00:03:17.294Z,63.02
2023-07-22T00:05:46.263Z,63.29
2023-07-22T00:08:19.906Z,62.20
2023-07-22T00:10:48.873Z,63.54
2023-07-22T00:13:20.530Z,63.23
2023-07-22T00:15:51.749Z,63.82
2023-07-22T00:18:21.136Z,63.78
2023-07-22T00:20:52.298Z,63.79
2023-07-22T00:23:34.798Z,63.71
2023-07-22T00:26:04.617Z,63.80
2023-07-22T00:28:36.511Z,63.81
2023-07-22T00:31:07.680Z,63.76
2023-07-22T00:33:37.029Z,64.09
2023-07-22T00:36:08.461Z,64.01
2023-07-22T00:38:44.381Z,63.99
2023-07-22T00:41:13.111Z,64.11
2023-07-22T00:43:43.219Z,63.50
2023-07-22T00:46:20.054Z,63.76
2023-07-22T00:48:53.093Z,63.47
2023-07-22T00:51:24.658Z,63.03
2023-07-22T00:54:06.942Z,62.55
2023-07-22T00:56:38.615Z,62.18
2023-07-22T00:59:08.537Z,61.97
2023-07-22T01:01:44.354Z,62.54
2023-07-22T01:04:16.985Z,62.37
2023-07-22T01:06:49.708Z,63.13
2023-07-22T01:09:19.870Z,63.11
2023-07-22T01:11:51.119Z,63.42
2023-07-22T01:14:22.863Z,63.82
2023-07-22T01:16:53.371Z,63.62
2023-07-22T01:19:22.582Z,63.35
2023-07-22T01:22:01.538Z,62.87
2023-07-22T01:24:36.770Z,62.99
2023-07-22T01:27:09.313Z,63.28
2023-07-22T01:29:41.202Z,63.79
2023-07-22T01:32:24.610Z,64.03
2023-07-22T01:34:55.707Z,64.41
2023-07-22T01:37:24.381Z,64.32
2023-07-22T01:40:13.500Z,62.84
2023-07-22T01:42:44.051Z,63.89
2023-07-22T01:45:18.174Z,64.09
2023-07-22T01:47:48.050Z,64.25
2023-07-22T01:50:20.169Z,64.15
2023-07-22T01:52:50.581Z,63.66
2023-07-22T01:55:30.437Z,64.30
2023-07-22T01:58:01.785Z,64.17
2023-07-22T02:00:38.911Z,63.69
2023-07-22T02:03:09.760Z,64.04
2023-07-22T02:05:40.887Z,64.32
2023-07-22T02:08:11.915Z,64.56
2023-07-22T02:10:45.811Z,64.26
2023-07-22T02:13:25.103Z,65.17
2023-07-22T02:15:55.946Z,64.90
2023-07-22T02:18:25.736Z,64.78
2023-07-22T02:20:57.894Z,64.94
2023-07-22T02:23:28.674Z,65.73
2023-07-22T02:26:13.994Z,66.44
2023-07-22T02:28:44.417Z,65.81
2023-07-22T02:31:23.046Z,66.06
2023-07-22T02:33:54.332Z,65.36
2023-07-22T02:36:23.336Z,66.54
2023-07-22T02:39:10.695Z,66.54
2023-07-22T02:41:42.864Z,66.85
2023-07-22T02:44:17.513Z,66.83
2023-07-22T02:46:46.666Z,66.12
2023-07-22T02:49:18.704Z,67.03
2023-07-22T02:51:51.807Z,67.93
2023-07-22T02:54:21.159Z,68.22
2023-07-22T02:57:02.436Z,66.94
2023-07-22T02:59:31.346Z,67.66
2023-07-22T03:02:09.694Z,68.50
2023-07-22T03:04:38.376Z,68.40
2023-07-22T03:07:20.850Z,68.28
2023-07-22T03:09:51.347Z,68.37
2023-07-22T03:12:24.351Z,67.76
2023-07-22T03:14:55.479Z,68.91
2023-07-22T03:17:26.719Z,68.73
2023-07-22T03:20:01.001Z,68.16
2023-07-22T03:22:29.300Z,69.24
2023-07-22T03:24:58.666Z,68.49
2023-07-22T03:27:35.812Z,68.48
2023-07-22T03:30:11.194Z,68.03
2023-07-22T03:32:40.236Z,67.86
2023-07-22T03:35:16.762Z,68.83
2023-07-22T03:37:50.720Z,68.31
2023-07-22T03:40:33.586Z,68.14
2023-07-22T03:43:04.179Z,68.40
2023-07-22T03:45:35.778Z,68.06
2023-07-22T03:48:04.313Z,68.24
2023-07-22T03:50:33.907Z,67.83
2023-07-22T03:53:11.806Z,67.72
2023-07-22T03:55:42.023Z,67.14
2023-07-22T03:58:11.588Z,66.96
2023-07-22T04:00:43.621Z,66.68
2023-07-22T04:03:14.486Z,65.18
2023-07-22T04:05:57.547Z,65.47
2023-07-22T04:08:34.940Z,65.49
2023-07-22T04:11:09.313Z,65.46
2023-07-22T04:13:43.198Z,64.83
2023-07-22T04:16:14.091Z,64.99
2023-07-22T04:18:44.192Z,65.14
2023-07-22T04:21:14.734Z,65.20
2023-07-22T04:23:45.238Z,64.91
2023-07-22T04:26:16.942Z,65.38
2023-07-22T04:28:49.202Z,64.77
2023-07-22T04:31:27.537Z,65.25
2023-07-22T04:33:57.855Z,64.96
2023-07-22T04:36:28.868Z,64.65
2023-07-22T04:39:06.761Z,64.84
2023-07-22T04:41:37.373Z,64.92
2023-07-22T04:44:08.981Z,64.50
2023-07-22T04:46:38.352Z,63.77
2023-07-22T04:49:07.299Z,64.65
2023-07-22T04:51:36.881Z,64.78
2023-07-22T04:54:05.540Z,64.65
2023-07-22T04:56:39.827Z,65.34
2023-07-22T04:59:18.722Z,64.33
2023-07-22T05:01:56.433Z,64.90
2023-07-22T05:04:25.335Z,64.27
2023-07-22T05:06:59.730Z,64.59
2023-07-22T05:09:38.057Z,64.63
2023-07-22T05:12:19.164Z,64.82
2023-07-22T05:14:57.696Z,65.01
2023-07-22T05:17:32.859Z,65.15
2023-07-22T05:20:03.411Z,64.92
2023-07-22T05:22:34.390Z,64.72
2023-07-22T05:25:06.587Z,65.24
2023-07-22T05:27:42.830Z,64.45
2023-07-22T05:30:28.412Z,65.00
2023-07-22T05:32:59.723Z,65.79
2023-07-22T05:35:38.018Z,65.65
2023-07-22T05:38:15.060Z,65.35
2023-07-22T05:40:43.143Z,65.69
2023-07-22T05:43:12.661Z,65.57
2023-07-22T05:45:49.750Z,64.42
2023-07-22T05:48:22.731Z,64.75
2023-07-22T05:50:59.445Z,64.80
2023-07-22T05:53:27.766Z,64.86
2023-07-22T05:55:57.177Z,65.68
2023-07-22T05:58:27.398Z,66.02
2023-07-22T06:00:57.982Z,65.99
2023-07-22T06:03:31.969Z,64.79
2023-07-22T06:06:04.200Z,63.69
2023-07-22T06:08:36.131Z,63.63
2023-07-22T06:11:06.871Z,65.80
2023-07-22T06:13:39.734Z,65.63
2023-07-22T06:16:13.195Z,63.94
2023-07-22T06:18:47.006Z,62.63
2023-07-22T06:21:15.809Z,63.78
2023-07-22T06:23:49.957Z,62.88
2023-07-22T06:26:21.845Z,62.60
2023-07-22T06:28:56.347Z,61.99
2023-07-22T06:31:31.628Z,62.32
2023-07-22T06:34:08.436Z,61.66
2023-07-22T06:36:43.537Z,60.74
2023-07-22T06:39:25.652Z,59.81
2023-07-22T06:41:59.895Z,58.61
2023-07-22T06:44:37.138Z,57.75
2023-07-22T06:47:11.722Z,57.84
2023-07-22T06:49:44.812Z,56.94
2023-07-22T06:52:16.684Z,55.79
2023-07-22T06:54:48.175Z,56.91
2023-07-22T06:57:27.112Z,56.13
2023-07-22T07:00:01.343Z,54.73
2023-07-22T07:02:32.033Z,54.23
2023-07-22T07:05:00.498Z,52.96
2023-07-22T07:07:37.570Z,53.09
2023-07-22T07:10:14.951Z,53.05
2023-07-22T07:12:49.077Z,53.15
2023-07-22T07:15:18.455Z,52.98
2023-07-22T07:17:51.806Z,53.52
2023-07-22T07:20:23.661Z,53.39
2023-07-22T07:22:58.562Z,52.80
2023-07-22T07:25:28.852Z,52.59
2023-07-22T07:27:57.428Z,52.26
2023-07-22T07:30:27.706Z,51.57
2023-07-22T07:33:00.399Z,50.82
2023-07-22T07:35:29.970Z,50.49
2023-07-22T07:38:01.037Z,51.05
2023-07-22T07:40:30.443Z,51.10
2023-07-22T07:43:00.444Z,50.94
2023-07-22T07:45:33.057Z,50.96
2023-07-22T07:48:03.339Z,50.09
2023-07-22T07:50:35.023Z,50.26
2023-07-22T07:53:05.839Z,49.17
2023-07-22T07:55:36.653Z,48.62
2023-07-22T07:58:08.393Z,49.10
2023-07-22T08:00:39.864Z,49.08
2023-07-22T08:03:11.076Z,47.94
2023-07-22T08:05:55.364Z,47.90
2023-07-22T08:08:25.132Z,48.37
2023-07-22T08:11:27.305Z,47.40
2023-07-22T08:13:59.603Z,48.14
2023-07-22T08:16:31.126Z,47.50
2023-07-22T08:19:15.873Z,46.93
2023-07-22T08:21:49.995Z,46.89
2023-07-22T08:24:20.316Z,46.29
2023-07-22T08:26:57.296Z,45.63
2023-07-22T08:29:29.552Z,45.91
2023-07-22T08:32:01.833Z,45.52
2023-07-22T08:34:35.389Z,44.55
2023-07-22T08:37:13.102Z,44.50
2023-07-22T08:39:42.834Z,44.15
2023-07-22T08:42:14.517Z,43.74
2023-07-22T08:44:46.335Z,44.63
2023-07-22T08:47:19.178Z,44.52
2023-07-22T08:49:55.333Z,44.68
2023-07-22T08:52:45.884Z,44.50
2023-07-22T08:55:15.975Z,44.39
2023-07-22T08:57:47.457Z,43.78
2023-07-22T09:00:17.576Z,43.57
2023-07-22T09:02:47.247Z,42.91
2023-07-22T09:05:21.846Z,42.34
2023-07-22T09:07:51.739Z,43.32
2023-07-22T09:10:29.535Z,42.58
2023-07-22T09:13:04.158Z,42.22
2023-07-22T09:15:37.703Z,41.84
2023-07-22T09:18:10.147Z,41.91
2023-07-22T09:20:52.568Z,40.95
2023-07-22T09:23:37.671Z,40.64
2023-07-22T09:26:15.928Z,41.53
2023-07-22T09:29:01.134Z,40.69
2023-07-22T09:31:31.225Z,40.08
2023-07-22T09:34:13.573Z,39.53
2023-07-22T09:37:07.577Z,39.05
2023-07-22T09:39:40.013Z,38.24
2023-07-22T09:42:10.185Z,38.81
2023-07-22T09:44:40.961Z,39.25
2023-07-22T09:47:11.040Z,39.24
2023-07-22T09:49:44.274Z,39.19
2023-07-22T09:52:15.937Z,40.04
2023-07-22T09:54:52.484Z,39.31
2023-07-22T09:57:34.260Z,38.20
2023-07-22T10:00:08.808Z,37.90
2023-07-22T10:02:45.870Z,37.87
2023-07-22T10:05:19.175Z,38.25
2023-07-22T10:08:10.244Z,37.59
2023-07-22T10:10:45.395Z,37.92
2023-07-22T10:13:16.456Z,37.89
2023-07-22T10:15:44.921Z,36.97
2023-07-22T10:18:14.888Z,37.29
2023-07-22T10:20:52.707Z,36.68
2023-07-22T10:23:24.091Z,36.31
2023-07-22T10:25:58.783Z,35.92
2023-07-22T10:28:32.936Z,34.91
2023-07-22T10:31:04.384Z,35.49
2023-07-22T10:33:33.493Z,36.52
2023-07-22T10:39:18.708Z,35.03
2023-07-22T10:41:57.371Z,34.54
2023-07-22T10:44:28.257Z,34.24
2023-07-22T10:47:00.113Z,33.62
2023-07-22T10:49:45.534Z,32.68
2023-07-22T10:52:15.892Z,32.71
2023-07-22T10:54:58.973Z,33.61
2023-07-22T10:57:48.817Z,33.58
2023-07-22T11:00:23.205Z,32.31
2023-07-22T11:03:18.030Z,32.78
2023-07-22T11:06:01.973Z,31.95
2023-07-22T11:08:50.098Z,31.67
2023-07-22T11:11:26.473Z,31.52
2023-07-22T11:14:03.474Z,32.01
2023-07-22T11:16:34.125Z,32.30
2023-07-22T11:19:04.608Z,31.84
2023-07-22T11:21:41.163Z,31.40
2023-07-22T11:24:10.403Z,31.82
2023-07-22T11:26:45.609Z,31.85
2023-07-22T11:29:16.832Z,32.05
2023-07-22T11:31:48.349Z,32.38
2023-07-22T11:34:20.434Z,31.52
2023-07-22T11:36:49.901Z,31.33
2023-07-22T11:39:20.094Z,31.92
2023-07-22T11:41:51.232Z,31.61
2023-07-22T11:44:22.494Z,31.45
2023-07-22T11:47:00.329Z,31.12
2023-07-22T11:49:31.044Z,30.84
2023-07-22T11:52:05.310Z,31.95
2023-07-22T11:54:56.936Z,31.42
2023-07-22T11:57:31.326Z,30.83
2023-07-22T12:00:02.296Z,29.92
2023-07-22T12:02:58.562Z,30.07
2023-07-22T12:05:29.173Z,31.39
2023-07-22T12:07:59.471Z,30.69
2023-07-22T12:10:29.946Z,30.83
2023-07-22T12:13:03.428Z,29.88
2023-07-22T12:15:34.100Z,30.04
2023-07-22T12:18:04.407Z,30.01
2023-07-22T12:20:44.519Z,29.30
2023-07-22T12:23:21.386Z,29.58
2023-07-22T12:25:52.374Z,28.97
2023-07-22T12:28:27.206Z,28.49
2023-07-22T12:30:59.669Z,29.03
2023-07-22T12:33:30.957Z,28.80
2023-07-22T12:36:00.005Z,28.56
2023-07-22T12:38:40.489Z,28.20
2023-07-22T12:41:09.802Z,27.29
2023-07-22T12:43:41.760Z,27.62
2023-07-22T12:46:16.326Z,28.08
2023-07-22T12:48:55.863Z,27.92
2023-07-22T12:51:28.075Z,27.09
2023-07-22T12:53:59.366Z,26.92
2023-07-22T12:56:28.637Z,26.35
2023-07-22T12:59:01.412Z,25.04
2023-07-22T13:01:33.292Z,24.68
2023-07-22T13:04:02.652Z,24.42
2023-07-22T13:06:35.490Z,25.87
2023-07-22T13:09:10.870Z,25.49
2023-07-22T13:11:40.411Z,25.21
2023-07-22T13:14:17.678Z,26.43
2023-07-22T13:16:46.872Z,27.10
2023-07-22T13:19:16.310Z,27.09
2023-07-22T13:21:46.970Z,26.87
2023-07-22T13:24:17.216Z,27.23
2023-07-22T13:26:49.410Z,23.79
2023-07-22T13:29:22.103Z,24.40
2023-07-22T13:31:51.222Z,25.57
2023-07-22T13:34:22.515Z,26.30
2023-07-22T13:36:53.534Z,26.28
2023-07-22T13:39:24.664Z,27.04
2023-07-22T13:41:56.508Z,25.83
2023-07-22T13:44:28.992Z,25.48
2023-07-22T13:47:08.545Z,25.70
2023-07-22T13:49:37.250Z,25.15
2023-07-22T13:52:18.451Z,25.13
2023-07-22T13:54:47.767Z,25.08
2023-07-22T13:57:20.456Z,25.46
2023-07-22T13:59:50.897Z,24.12
2023-07-22T14:02:23.676Z,24.06
2023-07-22T14:04:59.553Z,25.11
2023-07-22T14:07:33.576Z,25.18
2023-07-22T14:10:05.300Z,25.11
2023-07-22T14:12:36.580Z,25.24
2023-07-22T14:15:12.574Z,25.18
2023-07-22T14:17:42.033Z,25.15
2023-07-22T14:20:15.571Z,24.55
2023-07-22T14:22:47.099Z,24.21
2023-07-22T14:25:25.202Z,24.22
2023-07-22T14:27:54.503Z,23.79
2023-07-22T14:30:32.214Z,24.12
2023-07-22T14:33:07.060Z,24.39
2023-07-22T14:35:40.317Z,24.71
2023-07-22T14:38:14.661Z,24.09
2023-07-22T14:40:49.613Z,23.55
2023-07-22T14:43:23.041Z,22.87
2023-07-22T14:46:01.532Z,24.21
2023-07-22T14:48:31.106Z,24.25
2023-07-22T14:51:01.298Z,23.37
2023-07-22T14:53:35.567Z,25.06
2023-07-22T14:56:08.066Z,25.08
2023-07-22T14:58:49.875Z,25.89
2023-07-22T15:01:28.168Z,26.00
2023-07-22T15:04:12.960Z,26.27
2023-07-22T15:06:44.682Z,26.16
2023-07-22T15:09:13.383Z,26.22
2023-07-22T15:11:45.098Z,26.51
2023-07-22T15:14:19.096Z,25.47
2023-07-22T15:16:54.562Z,24.71
2023-07-22T15:19:23.953Z,23.99
2023-07-22T15:21:55.131Z,23.98
2023-07-22T15:24:26.186Z,24.27
2023-07-22T15:26:57.124Z,24.98
2023-07-22T15:29:27.960Z,24.75
2023-07-22T15:32:02.394Z,23.45
2023-07-22T15:34:33.177Z,23.45
2023-07-22T15:37:05.236Z,24.31
2023-07-22T15:39:36.572Z,25.33
2023-07-22T15:42:11.113Z,24.91
2023-07-22T15:44:45.036Z,25.02
2023-07-22T15:47:28.252Z,24.10
2023-07-22T15:49:57.427Z,25.23
2023-07-22T15:52:25.853Z,26.07
2023-07-22T15:54:56.408Z,27.03
2023-07-22T15:57:28.116Z,26.34
2023-07-22T15:59:58.332Z,26.87
2023-07-22T16:02:35.893Z,26.94
2023-07-22T16:05:07.979Z,27.53
2023-07-22T16:07:44.813Z,27.24
2023-07-22T16:10:15.817Z,26.09
2023-07-22T16:12:45.133Z,27.54
2023-07-22T16:15:13.251Z,27.67
2023-07-22T16:17:47.968Z,27.82
2023-07-22T16:20:16.187Z,26.66
2023-07-22T16:22:52.837Z,26.27
2023-07-22T16:25:30.145Z,26.47
2023-07-22T16:27:59.307Z,26.83
2023-07-22T16:30:31.369Z,27.03
2023-07-22T16:33:15.846Z,26.72
2023-07-22T16:35:54.495Z,27.36
2023-07-22T16:38:26.489Z,27.65
2023-07-22T16:40:55.583Z,26.98
2023-07-22T16:43:25.603Z,26.75
2023-07-22T16:45:54.365Z,26.66
2023-07-22T16:48:37.648Z,28.01
2023-07-22T16:51:09.886Z,28.44
2023-07-22T16:53:39.081Z,28.37
2023-07-22T16:56:08.968Z,28.94
2023-07-22T16:58:38.369Z,28.78
2023-07-22T17:01:12.357Z,29.51
2023-07-22T17:03:52.666Z,30.23
2023-07-22T17:06:24.314Z,30.74
2023-07-22T17:08:53.988Z,30.96
2023-07-22T17:11:28.495Z,30.68
2023-07-22T17:14:01.554Z,31.62
2023-07-22T17:16:33.588Z,31.40
2023-07-22T17:19:24.687Z,31.68
2023-07-22T17:21:56.501Z,31.19
2023-07-22T17:24:27.779Z,31.36
2023-07-22T17:27:06.962Z,31.37
2023-07-22T17:29:38.647Z,31.29
2023-07-22T17:32:22.530Z,31.41
2023-07-22T17:34:59.866Z,32.48
2023-07-22T17:37:31.628Z,32.28
2023-07-22T17:40:01.863Z,32.66
2023-07-22T17:42:38.042Z,32.62
2023-07-22T17:45:18.666Z,32.25
2023-07-22T17:47:54.765Z,32.13
2023-07-22T17:50:45.490Z,32.36
2023-07-22T17:53:21.029Z,32.64
2023-07-22T17:56:01.601Z,32.87
2023-07-22T17:58:33.093Z,33.25
2023-07-22T18:01:05.637Z,33.69
2023-07-22T18:03:38.229Z,33.86
2023-07-22T18:06:19.623Z,33.66
2023-07-22T18:08:52.855Z,34.27
2023-07-22T18:11:28.569Z,34.56
2023-07-22T18:14:09.542Z,34.77
2023-07-22T18:16:40.280Z,34.94
2023-07-22T18:19:12.436Z,34.99
2023-07-22T18:21:46.419Z,34.79
2023-07-22T18:24:35.952Z,35.13
2023-07-22T18:27:07.355Z,35.65
2023-07-22T18:29:41.005Z,35.69
2023-07-22T18:32:24.288Z,35.68
2023-07-22T18:35:03.148Z,36.07
2023-07-22T18:37:44.359Z,36.26
2023-07-22T18:40:23.272Z,36.41
2023-07-22T18:42:54.918Z,36.52
2023-07-22T18:45:31.853Z,36.71
2023-07-22T18:48:08.344Z,37.28
2023-07-22T18:50:48.858Z,37.02
2023-07-22T18:53:29.462Z,36.96
2023-07-22T18:56:13.393Z,37.18
2023-07-22T18:58:46.936Z,37.57
2023-07-22T19:01:31.075Z,37.46
2023-07-22T19:04:08.216Z,37.61
2023-07-22T19:06:48.854Z,37.62
2023-07-22T19:09:34.451Z,37.73
2023-07-22T19:12:12.009Z,38.05
2023-07-22T19:14:49.442Z,38.00
2023-07-22T19:17:21.863Z,38.20
2023-07-22T19:19:54.986Z,37.99
2023-07-22T19:22:26.206Z,38.19
2023-07-22T19:25:03.725Z,38.53
2023-07-22T19:27:42.273Z,38.81
2023-07-22T19:30:17.983Z,38.61
2023-07-22T19:32:52.849Z,38.13
2023-07-22T19:35:26.979Z,38.37
2023-07-22T19:38:01.363Z,38.64
2023-07-22T19:40:56.019Z,38.84
2023-07-22T19:43:31.445Z,38.89
2023-07-22T19:46:10.515Z,39.08
2023-07-22T19:49:04.237Z,39.12
2023-07-22T19:51:44.247Z,39.25
2023-07-22T19:54:23.855Z,39.56
2023-07-22T19:57:11.941Z,39.61
2023-07-22T19:59:46.049Z,39.73
2023-07-22T20:02:30.079Z,39.72
2023-07-22T20:05:10.038Z,40.07
2023-07-22T20:07:45.675Z,40.21
2023-07-22T20:10:33.380Z,40.00
2023-07-22T20:13:11.070Z,39.88
2023-07-22T20:15:45.003Z,40.30
2023-07-22T20:18:30.047Z,40.50
2023-07-22T20:21:02.515Z,40.40
2023-07-22T20:23:38.356Z,40.69
2023-07-22T20:26:20.996Z,40.73
2023-07-22T20:29:07.669Z,40.58
2023-07-22T20:31:55.049Z,40.78
2023-07-22T20:34:26.357Z,41.18
2023-07-22T20:36:58.545Z,41.74
2023-07-22T20:39:40.649Z,41.25
2023-07-22T20:42:25.734Z,41.67
2023-07-22T20:45:01.286Z,42.16
2023-07-22T20:47:33.663Z,42.03
2023-07-22T20:50:07.997Z,42.66
2023-07-22T20:52:43.501Z,42.28
2023-07-22T20:55:20.230Z,42.37
2023-07-22T20:57:59.567Z,42.27
2023-07-22T21:00:33.612Z,42.80
2023-07-22T21:03:05.500Z,42.93
2023-07-22T21:05:41.817Z,43.06
2023-07-22T21:08:15.957Z,43.94
2023-07-22T21:10:44.349Z,43.74
2023-07-22T21:13:20.098Z,44.05
2023-07-22T21:15:54.960Z,44.01
2023-07-22T21:18:23.701Z,44.49
2023-07-22T21:20:56.045Z,44.23
2023-07-22T21:23:38.594Z,45.10
2023-07-22T21:26:10.783Z,45.76
2023-07-22T21:28:42.379Z,46.22
2023-07-22T21:31:28.242Z,45.66
2023-07-22T21:34:13.601Z,45.38
2023-07-22T21:36:44.621Z,45.40
2023-07-22T21:39:15.349Z,46.20
2023-07-22T21:41:46.979Z,46.28
2023-07-22T21:44:18.641Z,46.53
2023-07-22T21:46:50.329Z,46.58
2023-07-22T21:49:20.918Z,46.35
2023-07-22T21:51:50.046Z,46.44
2023-07-22T21:54:21.060Z,45.95
2023-07-22T21:56:55.307Z,46.90
2023-07-22T21:59:27.470Z,46.80
2023-07-22T22:02:11.226Z,47.05
2023-07-22T22:04:39.974Z,47.68
2023-07-22T22:07:09.548Z,47.55
2023-07-22T22:09:39.945Z,47.63
2023-07-22T22:12:17.584Z,47.98
2023-07-22T22:14:45.756Z,47.99
2023-07-22T22:17:19.339Z,47.89
2023-07-22T22:19:48.773Z,48.18
2023-07-22T22:22:20.381Z,47.89
2023-07-22T22:24:51.348Z,48.59
2023-07-22T22:27:24.670Z,48.96
2023-07-22T22:29:53.873Z,49.54
2023-07-22T22:32:24.434Z,49.21
2023-07-22T22:34:56.313Z,48.92
2023-07-22T22:37:34.283Z,49.06
2023-07-22T22:40:02.417Z,49.63
2023-07-22T22:42:31.990Z,49.49
2023-07-22T22:45:01.220Z,49.57
2023-07-22T22:47:35.575Z,49.21
2023-07-22T22:50:04.991Z,49.76
2023-07-22T22:52:37.953Z,50.25
2023-07-22T22:55:10.999Z,50.07
2023-07-22T22:57:45.008Z,50.04
2023-07-22T23:00:20.574Z,50.01
2023-07-22T23:02:59.002Z,50.23
2023-07-22T23:05:38.987Z,50.94
2023-07-22T23:08:11.466Z,51.04
2023-07-22T23:10:50.459Z,51.64
2023-07-22T23:13:22.092Z,51.83
2023-07-22T23:15:50.848Z,52.80
2023-07-22T23:18:27.611Z,53.34
2023-07-22T23:20:58.436Z,53.25
2023-07-22T23:23:32.145Z,53.22
2023-07-22T23:26:02.062Z,54.10
2023-07-22T23:28:31.462Z,53.66
2023-07-22T23:31:04.770Z,53.49
2023-07-22T23:33:37.440Z,53.71
2023-07-22T23:36:08.724Z,53.33
2023-07-22T23:38:38.890Z,53.58
2023-07-22T23:41:10.008Z,53.96
2023-07-22T23:43:38.923Z,53.77
2023-07-22T23:46:10.311Z,53.50
2023-07-22T23:48:42.358Z,54.00
2023-07-22T23:51:13.926Z,53.30
2023-07-22T23:53:50.131Z,53.89
2023-07-22T23:56:32.889Z,53.99
2023-07-22T23:59:05.157Z,54.25
